sensor_id;sensor_type;location;lat;lon;timestamp;P1;durP1;ratioP1;P2;durP2;ratioP2
64313;SDS011;50650;48.180;11.524;2023-08-06T00:00:51;6.25;;;3.00;;
64313;SDS011;50650;48.180;11.524;2023-08-06T00:03:17;4.32;;;3.05;;
64313;SDS011;50650;48.180;11.524;2023-08-06T00:05:43;3.75;;;3.10;;
64313;SDS011;50650;48.180;11.524;2023-08-06T00:08:10;4.07;;;3.50;;
64313;SDS011;50650;48.180;11.524;2023-08-06T00:10:38;5.18;;;3.33;;
64313;SDS011;50650;48.180;11.524;2023-08-06T00:13:05;4.97;;;3.15;;
64313;SDS011;50650;48.180;11.524;2023-08-06T00:15:32;4.50;;;3.08;;
64313;SDS011;50650;48.180;11.524;2023-08-06T00:17:58;4.97;;;2.90;;
64313;SDS011;50650;48.180;11.524;2023-08-06T00:20:24;3.92;;;3.17;;
64313;SDS011;50650;48.180;11.524;2023-08-06T00:22:51;6.47;;;3.13;;
64313;SDS011;50650;48.180;11.524;2023-08-06T00:25:17;4.70;;;3.20;;
64313;SDS011;50650;48.180;11.524;2023-08-06T00:27:46;6.22;;;3.47;;
64313;SDS011;50650;48.180;11.524;2023-08-06T00:30:12;5.38;;;3.22;;
64313;SDS011;50650;48.180;11.524;2023-08-06T00:32:38;4.20;;;2.83;;
64313;SDS011;50650;48.180;11.524;2023-08-06T00:35:05;2.90;;;2.45;;
64313;SDS011;50650;48.180;11.524;2023-08-06T00:37:32;3.97;;;2.92;;
64313;SDS011;50650;48.180;11.524;2023-08-06T00:39:59;3.03;;;2.22;;
64313;SDS011;50650;48.180;11.524;2023-08-06T00:42:26;4.03;;;2.33;;
64313;SDS011;50650;48.180;11.524;2023-08-06T00:44:53;2.67;;;2.20;;
64313;SDS011;50650;48.180;11.524;2023-08-06T00:47:20;3.05;;;2.10;;
64313;SDS011;50650;48.180;11.524;2023-08-06T00:49:46;2.53;;;1.92;;
64313;SDS011;50650;48.180;11.524;2023-08-06T00:52:13;2.28;;;1.92;;
64313;SDS011;50650;48.180;11.524;2023-08-06T00:54:40;2.22;;;1.90;;
64313;SDS011;50650;48.180;11.524;2023-08-06T00:57:07;2.97;;;2.25;;
64313;SDS011;50650;48.180;11.524;2023-08-06T00:59:33;3.10;;;2.50;;
64313;SDS011;50650;48.180;11.524;2023-08-06T01:02:01;3.05;;;2.50;;
64313;SDS011;50650;48.180;11.524;2023-08-06T01:04:28;3.55;;;2.35;;
64313;SDS011;50650;48.180;11.524;2023-08-06T01:06:56;6.82;;;2.63;;
64313;SDS011;50650;48.180;11.524;2023-08-06T01:09:31;4.63;;;2.67;;
64313;SDS011;50650;48.180;11.524;2023-08-06T01:12:05;2.42;;;2.22;;
64313;SDS011;50650;48.180;11.524;2023-08-06T01:14:33;3.45;;;2.33;;
64313;SDS011;50650;48.180;11.524;2023-08-06T01:17:05;3.08;;;2.22;;
64313;SDS011;50650;48.180;11.524;2023-08-06T01:19:32;2.47;;;2.28;;
64313;SDS011;50650;48.180;11.524;2023-08-06T01:22:00;2.50;;;2.10;;
64313;SDS011;50650;48.180;11.524;2023-08-06T01:24:27;3.08;;;2.35;;
64313;SDS011;50650;48.180;11.524;2023-08-06T01:26:54;2.85;;;2.63;;
64313;SDS011;50650;48.180;11.524;2023-08-06T01:29:25;3.95;;;2.60;;
64313;SDS011;50650;48.180;11.524;2023-08-06T01:31:55;4.97;;;2.47;;
64313;SDS011;50650;48.180;11.524;2023-08-06T01:34:23;5.25;;;2.75;;
64313;SDS011;50650;48.180;11.524;2023-08-06T01:36:50;3.40;;;2.58;;
64313;SDS011;50650;48.180;11.524;2023-08-06T01:39:18;3.97;;;3.10;;
64313;SDS011;50650;48.180;11.524;2023-08-06T01:41:46;6.50;;;3.00;;
64313;SDS011;50650;48.180;11.524;2023-08-06T01:44:12;3.97;;;3.03;;
64313;SDS011;50650;48.180;11.524;2023-08-06T01:46:39;3.63;;;3.05;;
64313;SDS011;50650;48.180;11.524;2023-08-06T01:49:05;5.28;;;2.90;;
64313;SDS011;50650;48.180;11.524;2023-08-06T01:51:31;6.45;;;3.00;;
64313;SDS011;50650;48.180;11.524;2023-08-06T01:53:58;4.03;;;3.20;;
64313;SDS011;50650;48.180;11.524;2023-08-06T01:56:26;3.80;;;3.05;;
64313;SDS011;50650;48.180;11.524;2023-08-06T01:58:52;4.97;;;3.15;;
64313;SDS011;50650;48.180;11.524;2023-08-06T02:01:18;4.80;;;3.17;;
64313;SDS011;50650;48.180;11.524;2023-08-06T02:03:45;3.83;;;2.75;;
64313;SDS011;50650;48.180;11.524;2023-08-06T02:06:11;3.25;;;2.72;;
64313;SDS011;50650;48.180;11.524;2023-08-06T02:08:38;5.97;;;2.80;;
64313;SDS011;50650;48.180;11.524;2023-08-06T02:11:04;7.78;;;3.08;;
64313;SDS011;50650;48.180;11.524;2023-08-06T02:13:32;3.85;;;2.70;;
64313;SDS011;50650;48.180;11.524;2023-08-06T02:15:59;4.13;;;2.88;;
64313;SDS011;50650;48.180;11.524;2023-08-06T02:18:25;3.45;;;2.70;;
64313;SDS011;50650;48.180;11.524;2023-08-06T02:20:55;3.00;;;2.70;;
64313;SDS011;50650;48.180;11.524;2023-08-06T02:23:22;3.28;;;2.70;;
64313;SDS011;50650;48.180;11.524;2023-08-06T02:25:53;2.70;;;2.38;;
64313;SDS011;50650;48.180;11.524;2023-08-06T02:28:23;3.05;;;2.17;;
64313;SDS011;50650;48.180;11.524;2023-08-06T02:30:51;3.08;;;2.20;;
64313;SDS011;50650;48.180;11.524;2023-08-06T02:33:17;4.97;;;2.33;;
64313;SDS011;50650;48.180;11.524;2023-08-06T02:35:44;3.15;;;2.40;;
64313;SDS011;50650;48.180;11.524;2023-08-06T02:38:10;2.80;;;2.00;;
64313;SDS011;50650;48.180;11.524;2023-08-06T02:40:42;3.10;;;2.30;;
64313;SDS011;50650;48.180;11.524;2023-08-06T02:43:09;2.83;;;2.22;;
64313;SDS011;50650;48.180;11.524;2023-08-06T02:45:35;2.65;;;2.15;;
64313;SDS011;50650;48.180;11.524;2023-08-06T02:48:03;2.55;;;2.08;;
64313;SDS011;50650;48.180;11.524;2023-08-06T02:50:30;6.25;;;2.47;;
64313;SDS011;50650;48.180;11.524;2023-08-06T02:52:57;4.57;;;2.22;;
64313;SDS011;50650;48.180;11.524;2023-08-06T02:55:23;2.90;;;2.03;;
64313;SDS011;50650;48.180;11.524;2023-08-06T02:57:49;2.20;;;2.00;;
64313;SDS011;50650;48.180;11.524;2023-08-06T03:00:16;4.20;;;2.00;;
64313;SDS011;50650;48.180;11.524;2023-08-06T03:02:42;2.40;;;2.20;;
64313;SDS011;50650;48.180;11.524;2023-08-06T03:05:10;2.97;;;2.00;;
64313;SDS011;50650;48.180;11.524;2023-08-06T03:07:36;6.53;;;2.38;;
64313;SDS011;50650;48.180;11.524;2023-08-06T03:10:03;4.47;;;2.38;;
64313;SDS011;50650;48.180;11.524;2023-08-06T03:12:30;2.35;;;2.15;;
64313;SDS011;50650;48.180;11.524;2023-08-06T03:14:56;2.30;;;1.95;;
64313;SDS011;50650;48.180;11.524;2023-08-06T03:17:22;3.05;;;1.98;;
64313;SDS011;50650;48.180;11.524;2023-08-06T03:19:49;2.70;;;1.90;;
64313;SDS011;50650;48.180;11.524;2023-08-06T03:22:17;2.28;;;1.90;;
64313;SDS011;50650;48.180;11.524;2023-08-06T03:24:43;3.10;;;2.05;;
64313;SDS011;50650;48.180;11.524;2023-08-06T03:27:09;2.30;;;1.88;;
64313;SDS011;50650;48.180;11.524;2023-08-06T03:29:36;2.38;;;1.98;;
64313;SDS011;50650;48.180;11.524;2023-08-06T03:32:02;4.40;;;2.15;;
64313;SDS011;50650;48.180;11.524;2023-08-06T03:34:29;2.42;;;1.92;;
64313;SDS011;50650;48.180;11.524;2023-08-06T03:36:55;2.35;;;2.00;;
64313;SDS011;50650;48.180;11.524;2023-08-06T03:39:23;2.38;;;1.75;;
64313;SDS011;50650;48.180;11.524;2023-08-06T03:41:50;4.97;;;1.92;;
64313;SDS011;50650;48.180;11.524;2023-08-06T03:44:16;2.38;;;1.98;;
64313;SDS011;50650;48.180;11.524;2023-08-06T03:46:42;2.75;;;2.00;;
64313;SDS011;50650;48.180;11.524;2023-08-06T03:49:09;2.70;;;2.00;;
64313;SDS011;50650;48.180;11.524;2023-08-06T03:51:35;2.72;;;1.80;;
64313;SDS011;50650;48.180;11.524;2023-08-06T03:54:02;2.28;;;2.00;;
64313;SDS011;50650;48.180;11.524;2023-08-06T03:56:29;3.28;;;1.95;;
64313;SDS011;50650;48.180;11.524;2023-08-06T03:58:56;2.28;;;1.90;;
64313;SDS011;50650;48.180;11.524;2023-08-06T04:01:22;3.83;;;1.90;;
64313;SDS011;50650;48.180;11.524;2023-08-06T04:03:49;3.53;;;1.90;;
64313;SDS011;50650;48.180;11.524;2023-08-06T04:06:15;3.10;;;2.00;;
64313;SDS011;50650;48.180;11.524;2023-08-06T04:08:41;2.72;;;2.00;;
64313;SDS011;50650;48.180;11.524;2023-08-06T04:11:08;3.65;;;1.83;;
64313;SDS011;50650;48.180;11.524;2023-08-06T04:13:36;5.30;;;1.80;;
64313;SDS011;50650;48.180;11.524;2023-08-06T04:16:02;2.25;;;1.70;;
64313;SDS011;50650;48.180;11.524;2023-08-06T04:18:29;2.35;;;1.70;;
64313;SDS011;50650;48.180;11.524;2023-08-06T04:20:55;3.55;;;1.80;;
64313;SDS011;50650;48.180;11.524;2023-08-06T04:23:22;5.40;;;1.85;;
64313;SDS011;50650;48.180;11.524;2023-08-06T04:25:49;2.40;;;1.80;;
64313;SDS011;50650;48.180;11.524;2023-08-06T04:28:15;3.45;;;1.45;;
64313;SDS011;50650;48.180;11.524;2023-08-06T04:30:43;3.05;;;1.75;;
64313;SDS011;50650;48.180;11.524;2023-08-06T04:33:09;3.33;;;1.67;;
64313;SDS011;50650;48.180;11.524;2023-08-06T04:35:35;2.72;;;1.67;;
64313;SDS011;50650;48.180;11.524;2023-08-06T04:38:02;1.85;;;1.60;;
64313;SDS011;50650;48.180;11.524;2023-08-06T04:40:28;2.22;;;1.40;;
64313;SDS011;50650;48.180;11.524;2023-08-06T04:42:55;1.80;;;1.58;;
64313;SDS011;50650;48.180;11.524;2023-08-06T04:45:21;2.92;;;1.67;;
64313;SDS011;50650;48.180;11.524;2023-08-06T04:47:50;3.08;;;1.85;;
64313;SDS011;50650;48.180;11.524;2023-08-06T04:50:17;1.70;;;1.40;;
64313;SDS011;50650;48.180;11.524;2023-08-06T04:52:43;1.73;;;1.40;;
64313;SDS011;50650;48.180;11.524;2023-08-06T04:55:10;2.22;;;1.50;;
64313;SDS011;50650;48.180;11.524;2023-08-06T04:57:36;3.10;;;1.70;;
64313;SDS011;50650;48.180;11.524;2023-08-06T05:00:03;2.58;;;1.42;;
64313;SDS011;50650;48.180;11.524;2023-08-06T05:02:30;1.90;;;1.55;;
64313;SDS011;50650;48.180;11.524;2023-08-06T05:04:58;1.88;;;1.55;;
64313;SDS011;50650;48.180;11.524;2023-08-06T05:07:25;3.70;;;1.35;;
64313;SDS011;50650;48.180;11.524;2023-08-06T05:09:51;1.67;;;1.50;;
64313;SDS011;50650;48.180;11.524;2023-08-06T05:12:18;2.55;;;1.40;;
64313;SDS011;50650;48.180;11.524;2023-08-06T05:14:45;2.20;;;1.27;;
64313;SDS011;50650;48.180;11.524;2023-08-06T05:17:14;2.92;;;1.33;;
64313;SDS011;50650;48.180;11.524;2023-08-06T05:19:40;1.95;;;1.50;;
64313;SDS011;50650;48.180;11.524;2023-08-06T05:22:08;1.65;;;1.30;;
64313;SDS011;50650;48.180;11.524;2023-08-06T05:24:35;2.55;;;1.48;;
64313;SDS011;50650;48.180;11.524;2023-08-06T05:27:01;3.30;;;1.50;;
64313;SDS011;50650;48.180;11.524;2023-08-06T05:29:28;2.33;;;1.73;;
64313;SDS011;50650;48.180;11.524;2023-08-06T05:31:54;4.80;;;1.95;;
64313;SDS011;50650;48.180;11.524;2023-08-06T05:34:20;2.83;;;1.55;;
64313;SDS011;50650;48.180;11.524;2023-08-06T05:36:47;1.90;;;1.20;;
64313;SDS011;50650;48.180;11.524;2023-08-06T05:39:15;1.67;;;1.38;;
64313;SDS011;50650;48.180;11.524;2023-08-06T05:41:41;1.65;;;1.20;;
64313;SDS011;50650;48.180;11.524;2023-08-06T05:44:07;2.72;;;1.50;;
64313;SDS011;50650;48.180;11.524;2023-08-06T05:46:34;2.08;;;1.52;;
64313;SDS011;50650;48.180;11.524;2023-08-06T05:49:00;3.03;;;1.40;;
64313;SDS011;50650;48.180;11.524;2023-08-06T05:51:27;2.78;;;1.73;;
64313;SDS011;50650;48.180;11.524;2023-08-06T05:53:53;2.53;;;1.80;;
64313;SDS011;50650;48.180;11.524;2023-08-06T05:56:21;2.10;;;1.40;;
64313;SDS011;50650;48.180;11.524;2023-08-06T05:58:47;3.30;;;1.58;;
64313;SDS011;50650;48.180;11.524;2023-08-06T06:01:16;2.90;;;1.40;;
64313;SDS011;50650;48.180;11.524;2023-08-06T06:03:42;4.03;;;1.88;;
64313;SDS011;50650;48.180;11.524;2023-08-06T06:06:09;1.83;;;1.60;;
64313;SDS011;50650;48.180;11.524;2023-08-06T06:08:35;2.55;;;1.70;;
64313;SDS011;50650;48.180;11.524;2023-08-06T06:11:02;4.43;;;1.38;;
64313;SDS011;50650;48.180;11.524;2023-08-06T06:13:29;2.67;;;1.38;;
64313;SDS011;50650;48.180;11.524;2023-08-06T06:15:56;1.75;;;1.10;;
64313;SDS011;50650;48.180;11.524;2023-08-06T06:18:22;2.20;;;1.23;;
64313;SDS011;50650;48.180;11.524;2023-08-06T06:20:49;2.22;;;1.38;;
64313;SDS011;50650;48.180;11.524;2023-08-06T06:23:15;1.63;;;1.00;;
64313;SDS011;50650;48.180;11.524;2023-08-06T06:25:42;2.58;;;1.35;;
64313;SDS011;50650;48.180;11.524;2023-08-06T06:28:09;2.55;;;1.30;;
64313;SDS011;50650;48.180;11.524;2023-08-06T06:30:37;1.98;;;1.40;;
64313;SDS011;50650;48.180;11.524;2023-08-06T06:33:03;4.82;;;1.05;;
64313;SDS011;50650;48.180;11.524;2023-08-06T06:35:30;2.00;;;1.20;;
64313;SDS011;50650;48.180;11.524;2023-08-06T06:37:56;3.08;;;1.10;;
64313;SDS011;50650;48.180;11.524;2023-08-06T06:40:22;1.63;;;1.10;;
64313;SDS011;50650;48.180;11.524;2023-08-06T06:42:49;2.90;;;1.23;;
64313;SDS011;50650;48.180;11.524;2023-08-06T06:45:15;3.22;;;0.98;;
64313;SDS011;50650;48.180;11.524;2023-08-06T06:47:43;3.67;;;1.00;;
64313;SDS011;50650;48.180;11.524;2023-08-06T06:50:09;2.22;;;1.17;;
64313;SDS011;50650;48.180;11.524;2023-08-06T06:52:36;3.05;;;1.00;;
64313;SDS011;50650;48.180;11.524;2023-08-06T06:55:03;1.20;;;0.90;;
64313;SDS011;50650;48.180;11.524;2023-08-06T06:57:30;1.60;;;0.90;;
64313;SDS011;50650;48.180;11.524;2023-08-06T06:59:57;2.00;;;0.82;;
64313;SDS011;50650;48.180;11.524;2023-08-06T07:02:23;1.88;;;0.90;;
64313;SDS011;50650;48.180;11.524;2023-08-06T07:04:51;2.13;;;1.02;;
64313;SDS011;50650;48.180;11.524;2023-08-06T07:07:17;7.95;;;0.95;;
64313;SDS011;50650;48.180;11.524;2023-08-06T07:09:44;1.23;;;0.75;;
64313;SDS011;50650;48.180;11.524;2023-08-06T07:12:10;2.22;;;0.80;;
64313;SDS011;50650;48.180;11.524;2023-08-06T07:14:37;1.70;;;0.68;;
64313;SDS011;50650;48.180;11.524;2023-08-06T07:17:04;2.17;;;0.60;;
64313;SDS011;50650;48.180;11.524;2023-08-06T07:19:31;2.15;;;0.50;;
64313;SDS011;50650;48.180;11.524;2023-08-06T07:21:59;1.30;;;0.50;;
64313;SDS011;50650;48.180;11.524;2023-08-06T07:24:25;2.22;;;0.60;;
64313;SDS011;50650;48.180;11.524;2023-08-06T07:26:52;1.98;;;0.60;;
64313;SDS011;50650;48.180;11.524;2023-08-06T07:29:20;1.90;;;0.60;;
64313;SDS011;50650;48.180;11.524;2023-08-06T07:31:47;2.47;;;0.50;;
64313;SDS011;50650;48.180;11.524;2023-08-06T07:34:14;2.00;;;0.68;;
64313;SDS011;50650;48.180;11.524;2023-08-06T07:36:42;1.42;;;0.60;;
64313;SDS011;50650;48.180;11.524;2023-08-06T07:39:11;1.88;;;0.80;;
64313;SDS011;50650;48.180;11.524;2023-08-06T07:41:37;2.25;;;0.60;;
64313;SDS011;50650;48.180;11.524;2023-08-06T07:44:04;1.85;;;0.60;;
64313;SDS011;50650;48.180;11.524;2023-08-06T07:46:30;1.60;;;0.60;;
64313;SDS011;50650;48.180;11.524;2023-08-06T07:48:57;1.20;;;0.90;;
64313;SDS011;50650;48.180;11.524;2023-08-06T07:51:23;1.85;;;0.70;;
64313;SDS011;50650;48.180;11.524;2023-08-06T07:53:49;0.77;;;0.52;;
64313;SDS011;50650;48.180;11.524;2023-08-06T07:56:17;1.98;;;0.60;;
64313;SDS011;50650;48.180;11.524;2023-08-06T07:58:44;2.15;;;0.70;;
64313;SDS011;50650;48.180;11.524;2023-08-06T08:01:10;2.25;;;0.50;;
64313;SDS011;50650;48.180;11.524;2023-08-06T08:03:36;1.38;;;0.40;;
64313;SDS011;50650;48.180;11.524;2023-08-06T08:06:03;3.20;;;0.70;;
64313;SDS011;50650;48.180;11.524;2023-08-06T08:08:29;2.15;;;0.95;;
64313;SDS011;50650;48.180;11.524;2023-08-06T08:10:56;0.88;;;0.65;;
64313;SDS011;50650;48.180;11.524;2023-08-06T08:13:25;1.55;;;0.70;;
64313;SDS011;50650;48.180;11.524;2023-08-06T08:15:56;2.95;;;0.60;;
64313;SDS011;50650;48.180;11.524;2023-08-06T08:18:24;2.60;;;0.55;;
64313;SDS011;50650;48.180;11.524;2023-08-06T08:20:50;1.00;;;0.50;;
64313;SDS011;50650;48.180;11.524;2023-08-06T08:23:17;1.27;;;0.40;;
64313;SDS011;50650;48.180;11.524;2023-08-06T08:25:43;2.65;;;0.40;;
64313;SDS011;50650;48.180;11.524;2023-08-06T08:28:10;0.80;;;0.30;;
64313;SDS011;50650;48.180;11.524;2023-08-06T08:30:37;1.05;;;0.50;;
64313;SDS011;50650;48.180;11.524;2023-08-06T08:33:06;3.05;;;0.60;;
64313;SDS011;50650;48.180;11.524;2023-08-06T08:35:33;2.75;;;0.68;;
64313;SDS011;50650;48.180;11.524;2023-08-06T08:37:59;1.27;;;0.47;;
64313;SDS011;50650;48.180;11.524;2023-08-06T08:40:26;1.98;;;0.38;;
64313;SDS011;50650;48.180;11.524;2023-08-06T08:42:58;1.05;;;0.50;;
64313;SDS011;50650;48.180;11.524;2023-08-06T08:45:26;1.02;;;0.40;;
64313;SDS011;50650;48.180;11.524;2023-08-06T08:47:54;1.45;;;0.50;;
64313;SDS011;50650;48.180;11.524;2023-08-06T08:50:21;1.08;;;0.50;;
64313;SDS011;50650;48.180;11.524;2023-08-06T08:52:47;1.23;;;0.50;;
64313;SDS011;50650;48.180;11.524;2023-08-06T08:55:16;1.52;;;0.50;;
64313;SDS011;50650;48.180;11.524;2023-08-06T08:57:43;0.65;;;0.30;;
64313;SDS011;50650;48.180;11.524;2023-08-06T09:00:10;1.50;;;0.50;;
64313;SDS011;50650;48.180;11.524;2023-08-06T09:02:39;2.42;;;0.40;;
64313;SDS011;50650;48.180;11.524;2023-08-06T09:05:10;1.52;;;0.35;;
64313;SDS011;50650;48.180;11.524;2023-08-06T09:07:38;0.90;;;0.30;;
64313;SDS011;50650;48.180;11.524;2023-08-06T09:10:13;1.45;;;0.50;;
64313;SDS011;50650;48.180;11.524;2023-08-06T09:12:42;0.57;;;0.30;;
64313;SDS011;50650;48.180;11.524;2023-08-06T09:15:09;0.73;;;0.43;;
64313;SDS011;50650;48.180;11.524;2023-08-06T09:17:36;0.47;;;0.32;;
64313;SDS011;50650;48.180;11.524;2023-08-06T09:20:11;1.25;;;0.32;;
64313;SDS011;50650;48.180;11.524;2023-08-06T09:22:39;1.00;;;0.38;;
64313;SDS011;50650;48.180;11.524;2023-08-06T09:25:09;0.85;;;0.38;;
64313;SDS011;50650;48.180;11.524;2023-08-06T09:27:36;0.70;;;0.30;;
64313;SDS011;50650;48.180;11.524;2023-08-06T09:30:03;0.80;;;0.20;;
64313;SDS011;50650;48.180;11.524;2023-08-06T09:32:44;0.50;;;0.20;;
64313;SDS011;50650;48.180;11.524;2023-08-06T09:35:14;1.30;;;0.35;;
64313;SDS011;50650;48.180;11.524;2023-08-06T09:37:41;1.63;;;0.20;;
64313;SDS011;50650;48.180;11.524;2023-08-06T09:40:21;0.73;;;0.30;;
64313;SDS011;50650;48.180;11.524;2023-08-06T09:42:50;1.40;;;0.20;;
64313;SDS011;50650;48.180;11.524;2023-08-06T09:45:17;0.50;;;0.30;;
64313;SDS011;50650;48.180;11.524;2023-08-06T09:47:43;0.73;;;0.35;;
64313;SDS011;50650;48.180;11.524;2023-08-06T09:50:16;1.13;;;0.55;;
64313;SDS011;50650;48.180;11.524;2023-08-06T09:52:43;1.33;;;0.30;;
64313;SDS011;50650;48.180;11.524;2023-08-06T09:55:10;0.95;;;0.20;;
64313;SDS011;50650;48.180;11.524;2023-08-06T09:57:38;3.92;;;0.20;;
64313;SDS011;50650;48.180;11.524;2023-08-06T10:00:05;1.85;;;0.20;;
64313;SDS011;50650;48.180;11.524;2023-08-06T10:02:36;0.40;;;0.20;;
64313;SDS011;50650;48.180;11.524;2023-08-06T10:05:04;0.22;;;0.10;;
64313;SDS011;50650;48.180;11.524;2023-08-06T10:07:32;0.73;;;0.28;;
64313;SDS011;50650;48.180;11.524;2023-08-06T10:10:03;1.90;;;0.20;;
64313;SDS011;50650;48.180;11.524;2023-08-06T10:12:31;0.70;;;0.20;;
64313;SDS011;50650;48.180;11.524;2023-08-06T10:14:59;0.70;;;0.20;;
64313;SDS011;50650;48.180;11.524;2023-08-06T10:17:28;0.30;;;0.20;;
64313;SDS011;50650;48.180;11.524;2023-08-06T10:19:54;2.25;;;0.77;;
64313;SDS011;50650;48.180;11.524;2023-08-06T10:22:21;1.35;;;0.82;;
64313;SDS011;50650;48.180;11.524;2023-08-06T10:24:51;7.88;;;3.03;;
64313;SDS011;50650;48.180;11.524;2023-08-06T10:27:21;1.02;;;0.50;;
64313;SDS011;50650;48.180;11.524;2023-08-06T10:29:49;0.68;;;0.15;;
64313;SDS011;50650;48.180;11.524;2023-08-06T10:32:15;9.77;;;0.85;;
64313;SDS011;50650;48.180;11.524;2023-08-06T10:34:56;1.88;;;0.70;;
64313;SDS011;50650;48.180;11.524;2023-08-06T10:37:24;5.10;;;1.30;;
64313;SDS011;50650;48.180;11.524;2023-08-06T10:39:52;1.23;;;0.50;;
64313;SDS011;50650;48.180;11.524;2023-08-06T10:42:22;2.92;;;0.80;;
64313;SDS011;50650;48.180;11.524;2023-08-06T10:47:37;1.33;;;0.30;;
64313;SDS011;50650;48.180;11.524;2023-08-06T10:50:04;2.67;;;0.80;;
64313;SDS011;50650;48.180;11.524;2023-08-06T10:52:34;0.63;;;0.15;;
64313;SDS011;50650;48.180;11.524;2023-08-06T10:55:02;0.50;;;0.30;;
64313;SDS011;50650;48.180;11.524;2023-08-06T10:57:30;0.45;;;0.20;;
64313;SDS011;50650;48.180;11.524;2023-08-06T10:59:56;2.70;;;0.30;;
64313;SDS011;50650;48.180;11.524;2023-08-06T11:02:23;3.80;;;1.20;;
64313;SDS011;50650;48.180;11.524;2023-08-06T11:04:49;0.50;;;0.30;;
64313;SDS011;50650;48.180;11.524;2023-08-06T11:07:15;2.00;;;0.22;;
64313;SDS011;50650;48.180;11.524;2023-08-06T11:09:42;0.35;;;0.20;;
64313;SDS011;50650;48.180;11.524;2023-08-06T11:12:10;2.00;;;0.88;;
64313;SDS011;50650;48.180;11.524;2023-08-06T11:14:36;2.17;;;1.25;;
64313;SDS011;50650;48.180;11.524;2023-08-06T11:17:03;7.13;;;4.80;;
64313;SDS011;50650;48.180;11.524;2023-08-06T11:19:30;8.40;;;4.93;;
64313;SDS011;50650;48.180;11.524;2023-08-06T11:21:57;4.97;;;2.40;;
64313;SDS011;50650;48.180;11.524;2023-08-06T11:24:24;6.25;;;0.35;;
64313;SDS011;50650;48.180;11.524;2023-08-06T11:26:51;1.50;;;0.50;;
64313;SDS011;50650;48.180;11.524;2023-08-06T11:29:26;0.30;;;0.20;;
64313;SDS011;50650;48.180;11.524;2023-08-06T11:32:02;1.88;;;0.60;;
64313;SDS011;50650;48.180;11.524;2023-08-06T11:34:29;0.17;;;0.10;;
64313;SDS011;50650;48.180;11.524;2023-08-06T11:36:56;3.40;;;0.28;;
64313;SDS011;50650;48.180;11.524;2023-08-06T11:39:25;0.10;;;0.10;;
64313;SDS011;50650;48.180;11.524;2023-08-06T11:41:56;0.35;;;0.15;;
64313;SDS011;50650;48.180;11.524;2023-08-06T11:44:26;0.20;;;0.10;;
64313;SDS011;50650;48.180;11.524;2023-08-06T11:46:56;0.32;;;0.15;;
64313;SDS011;50650;48.180;11.524;2023-08-06T11:49:37;0.15;;;0.10;;
64313;SDS011;50650;48.180;11.524;2023-08-06T11:52:07;0.30;;;0.10;;
64313;SDS011;50650;48.180;11.524;2023-08-06T11:54:35;0.10;;;0.10;;
64313;SDS011;50650;48.180;11.524;2023-08-06T11:57:03;0.30;;;0.10;;
64313;SDS011;50650;48.180;11.524;2023-08-06T11:59:31;0.10;;;0.10;;
64313;SDS011;50650;48.180;11.524;2023-08-06T12:01:57;0.28;;;0.10;;
64313;SDS011;50650;48.180;11.524;2023-08-06T12:04:24;0.08;;;0.08;;
64313;SDS011;50650;48.180;11.524;2023-08-06T12:06:50;0.52;;;0.10;;
64313;SDS011;50650;48.180;11.524;2023-08-06T12:09:18;0.52;;;0.10;;
64313;SDS011;50650;48.180;11.524;2023-08-06T12:11:45;0.32;;;0.10;;
64313;SDS011;50650;48.180;11.524;2023-08-06T12:14:13;0.30;;;0.10;;
64313;SDS011;50650;48.180;11.524;2023-08-06T12:16:41;0.10;;;0.10;;
64313;SDS011;50650;48.180;11.524;2023-08-06T12:19:07;0.10;;;0.10;;
64313;SDS011;50650;48.180;11.524;2023-08-06T12:21:34;0.20;;;0.10;;
64313;SDS011;50650;48.180;11.524;2023-08-06T12:24:00;0.32;;;0.13;;
64313;SDS011;50650;48.180;11.524;2023-08-06T12:26:26;0.10;;;0.10;;
64313;SDS011;50650;48.180;11.524;2023-08-06T12:28:53;0.25;;;0.15;;
64313;SDS011;50650;48.180;11.524;2023-08-06T12:31:20;4.57;;;0.20;;
64313;SDS011;50650;48.180;11.524;2023-08-06T12:33:48;0.32;;;0.13;;
64313;SDS011;50650;48.180;11.524;2023-08-06T12:36:16;0.50;;;0.30;;
64313;SDS011;50650;48.180;11.524;2023-08-06T12:38:43;0.85;;;0.00;;
64313;SDS011;50650;48.180;11.524;2023-08-06T12:41:09;0.88;;;0.28;;
64313;SDS011;50650;48.180;11.524;2023-08-06T12:43:36;0.70;;;0.50;;
64313;SDS011;50650;48.180;11.524;2023-08-06T12:46:04;0.30;;;0.20;;
64313;SDS011;50650;48.180;11.524;2023-08-06T12:48:31;0.10;;;0.10;;
64313;SDS011;50650;48.180;11.524;2023-08-06T12:50:59;0.40;;;0.17;;
64313;SDS011;50650;48.180;11.524;2023-08-06T12:53:25;1.00;;;0.25;;
64313;SDS011;50650;48.180;11.524;2023-08-06T12:55:51;1.27;;;0.20;;
64313;SDS011;50650;48.180;11.524;2023-08-06T12:58:18;0.22;;;0.20;;
64313;SDS011;50650;48.180;11.524;2023-08-06T13:00:44;0.10;;;0.10;;
64313;SDS011;50650;48.180;11.524;2023-08-06T13:03:11;0.20;;;0.13;;
64313;SDS011;50650;48.180;11.524;2023-08-06T13:05:39;0.43;;;0.20;;
64313;SDS011;50650;48.180;11.524;2023-08-06T13:08:07;0.20;;;0.20;;
64313;SDS011;50650;48.180;11.524;2023-08-06T13:10:34;0.10;;;0.10;;
64313;SDS011;50650;48.180;11.524;2023-08-06T13:13:00;0.30;;;0.20;;
64313;SDS011;50650;48.180;11.524;2023-08-06T13:15:26;1.45;;;0.20;;
64313;SDS011;50650;48.180;11.524;2023-08-06T13:17:53;0.30;;;0.20;;
64313;SDS011;50650;48.180;11.524;2023-08-06T13:20:19;0.90;;;0.28;;
64313;SDS011;50650;48.180;11.524;2023-08-06T13:22:47;0.25;;;0.17;;
64313;SDS011;50650;48.180;11.524;2023-08-06T13:25:19;0.20;;;0.20;;
64313;SDS011;50650;48.180;11.524;2023-08-06T13:27:45;0.60;;;0.17;;
64313;SDS011;50650;48.180;11.524;2023-08-06T13:30:12;0.20;;;0.10;;
64313;SDS011;50650;48.180;11.524;2023-08-06T13:32:39;0.32;;;0.20;;
64313;SDS011;50650;48.180;11.524;2023-08-06T13:35:05;0.57;;;0.25;;
64313;SDS011;50650;48.180;11.524;2023-08-06T13:37:32;0.35;;;0.20;;
64313;SDS011;50650;48.180;11.524;2023-08-06T13:39:59;0.40;;;0.20;;
64313;SDS011;50650;48.180;11.524;2023-08-06T13:42:29;0.15;;;0.10;;
64313;SDS011;50650;48.180;11.524;2023-08-06T13:44:57;0.73;;;0.25;;
64313;SDS011;50650;48.180;11.524;2023-08-06T13:47:28;0.22;;;0.13;;
64313;SDS011;50650;48.180;11.524;2023-08-06T13:49:54;0.40;;;0.30;;
64313;SDS011;50650;48.180;11.524;2023-08-06T13:52:21;1.58;;;0.30;;
64313;SDS011;50650;48.180;11.524;2023-08-06T13:54:47;2.53;;;0.20;;
64313;SDS011;50650;48.180;11.524;2023-08-06T13:57:13;0.70;;;0.20;;
64313;SDS011;50650;48.180;11.524;2023-08-06T13:59:43;0.22;;;0.20;;
64313;SDS011;50650;48.180;11.524;2023-08-06T14:02:12;0.50;;;0.17;;
64313;SDS011;50650;48.180;11.524;2023-08-06T14:04:39;0.35;;;0.20;;
64313;SDS011;50650;48.180;11.524;2023-08-06T14:07:05;0.20;;;0.10;;
64313;SDS011;50650;48.180;11.524;2023-08-06T14:09:32;0.10;;;0.10;;
64313;SDS011;50650;48.180;11.524;2023-08-06T14:11:59;0.30;;;0.20;;
64313;SDS011;50650;48.180;11.524;2023-08-06T14:14:25;0.20;;;0.20;;
64313;SDS011;50650;48.180;11.524;2023-08-06T14:16:53;0.15;;;0.10;;
64313;SDS011;50650;48.180;11.524;2023-08-06T14:19:20;0.20;;;0.20;;
64313;SDS011;50650;48.180;11.524;2023-08-06T14:21:46;0.20;;;0.20;;
64313;SDS011;50650;48.180;11.524;2023-08-06T14:24:13;0.50;;;0.25;;
64313;SDS011;50650;48.180;11.524;2023-08-06T14:26:39;0.20;;;0.20;;
64313;SDS011;50650;48.180;11.524;2023-08-06T14:29:06;0.65;;;0.30;;
64313;SDS011;50650;48.180;11.524;2023-08-06T14:31:33;0.43;;;0.20;;
64313;SDS011;50650;48.180;11.524;2023-08-06T14:34:03;2.63;;;0.95;;
64313;SDS011;50650;48.180;11.524;2023-08-06T14:36:29;0.45;;;0.30;;